Terminal Aerodrome Forecast
Issued by NWS Austin/San Antonio, TX

Home | Current Version | Previous Version | Text Only | Print | Product List | Glossary On
Versions: 1 2 3 4 5 6 7 8 9 10 11 12 13 14 15 16 17 18 19 20 21
000
FTUS44 KEWX 011720
TAFAUS
TAF
KAUS 011720Z 0118/0224 02015KT P6SM BKN035
     FM020000 02015G25KT P6SM OVC035
     FM020300 36015G25KT P6SM OVC025
     FM021600 01018KT P6SM BKN050=

USA.gov is the U.S. government's official web portal to all federal, state and local government web resources and services.